createdAt,value
2022-08-26T00:01:54.316Z,100144.06
2022-08-26T00:04:23.926Z,100095.25
2022-08-26T00:06:52.642Z,100103.69
2022-08-26T00:09:20.001Z,100136.59
2022-08-26T00:11:47.716Z,100120.19
2022-08-26T00:14:16.585Z,100145.16
2022-08-26T00:16:47.738Z,100146.84
2022-08-26T00:19:21.630Z,100131.34
2022-08-26T00:21:50.031Z,100148.69
2022-08-26T00:24:19.630Z,100100.75
2022-08-26T00:26:48.831Z,100141.47
2022-08-26T00:29:18.999Z,100144.16
2022-08-26T00:31:54.801Z,100130.34
2022-08-26T00:34:23.993Z,100126.69
2022-08-26T00:36:52.225Z,100139.53
2022-08-26T00:39:20.451Z,100152.38
2022-08-26T00:41:48.666Z,100089.97
2022-08-26T00:44:16.293Z,100137.06
2022-08-26T00:46:51.585Z,100149.03
2022-08-26T00:49:38.692Z,100145.00
2022-08-26T00:52:12.037Z,100150.63
2022-08-26T00:54:47.067Z,100164.22
2022-08-26T00:57:17.932Z,100151.72
2022-08-26T00:59:49.202Z,100069.19
2022-08-26T01:02:20.888Z,100152.13
2022-08-26T01:04:54.277Z,100151.38
2022-08-26T01:07:30.320Z,100143.56
2022-08-26T01:10:01.562Z,100130.72
2022-08-26T01:12:33.999Z,100140.13
2022-08-26T01:15:02.599Z,100132.91
2022-08-26T01:17:30.895Z,100130.34
2022-08-26T01:20:18.790Z,100143.41
2022-08-26T01:23:04.770Z,100127.63
2022-08-26T01:25:35.283Z,100030.25
2022-08-26T01:28:07.009Z,100128.38
2022-08-26T01:30:35.628Z,100138.13
2022-08-26T01:33:08.029Z,100152.22
2022-08-26T01:35:37.673Z,100132.28
2022-08-26T01:38:05.670Z,100146.94
2022-08-26T01:40:37.557Z,100148.03
2022-08-26T01:43:08.805Z,100126.41
2022-08-26T01:45:40.718Z,100071.66
2022-08-26T01:48:12.602Z,100139.72
2022-08-26T01:50:40.534Z,100143.38
2022-08-26T01:53:13.296Z,100151.31
2022-08-26T01:55:44.700Z,100146.94
2022-08-26T01:58:26.639Z,100164.25
2022-08-26T02:00:54.892Z,100094.63
2022-08-26T02:03:22.827Z,100145.69
2022-08-26T02:05:57.291Z,100127.41
2022-08-26T02:08:47.837Z,100097.03
2022-08-26T02:11:15.695Z,100156.13
2022-08-26T02:13:51.053Z,100149.41
2022-08-26T02:16:22.388Z,100156.13
2022-08-26T02:18:53.261Z,100157.22
2022-08-26T02:21:21.610Z,100149.28
2022-08-26T02:23:52.692Z,100149.16
2022-08-26T02:26:26.978Z,100145.16
2022-08-26T02:29:02.538Z,100131.44
2022-08-26T02:31:30.283Z,100153.13
2022-08-26T02:34:12.454Z,100147.63
2022-08-26T02:36:40.366Z,100080.03
2022-08-26T02:39:08.896Z,100150.22
2022-08-26T02:41:37.845Z,100148.03
2022-08-26T02:44:13.373Z,100157.59
2022-08-26T02:46:41.753Z,100162.63
2022-08-26T02:49:17.891Z,100158.44
2022-08-26T02:51:45.936Z,100135.94
2022-08-26T02:54:14.176Z,100080.06
2022-08-26T02:56:41.687Z,100171.22
2022-08-26T02:59:09.642Z,100154.06
2022-08-26T03:01:37.173Z,100129.66
2022-08-26T03:04:07.145Z,100068.00
2022-08-26T03:06:34.915Z,100161.66
2022-08-26T03:09:05.904Z,100161.72
2022-08-26T03:11:34.029Z,100158.00
2022-08-26T03:14:03.643Z,100151.34
2022-08-26T03:16:33.840Z,100168.16
2022-08-26T03:19:03.127Z,100147.28
2022-08-26T03:21:31.383Z,100091.00
2022-08-26T03:23:59.605Z,100025.38
2022-08-26T03:26:28.715Z,100162.00
2022-08-26T03:29:15.753Z,100090.47
2022-08-26T03:31:44.225Z,100158.44
2022-08-26T03:34:14.925Z,100178.59
2022-08-26T03:36:42.390Z,100173.47
2022-08-26T03:39:12.563Z,100100.38
2022-08-26T03:41:40.706Z,100164.38
2022-08-26T03:44:11.719Z,100175.19
2022-08-26T03:46:40.125Z,100172.00
2022-08-26T03:49:08.074Z,100172.84
2022-08-26T03:51:38.743Z,100177.13
2022-08-26T03:54:08.337Z,100172.13
2022-08-26T03:56:36.838Z,100179.53
2022-08-26T03:59:05.009Z,100114.25
2022-08-26T04:01:36.000Z,100183.34
2022-08-26T04:04:04.629Z,100120.88
2022-08-26T04:06:44.959Z,100189.31
2022-08-26T04:09:18.704Z,100186.25
2022-08-26T04:11:50.723Z,100186.00
2022-08-26T04:14:21.579Z,100194.56
2022-08-26T04:16:50.124Z,100043.31
2022-08-26T04:19:19.962Z,100189.06
2022-08-26T04:21:51.629Z,100186.31
2022-08-26T04:24:21.993Z,100213.94
2022-08-26T04:26:49.851Z,100208.84
2022-08-26T04:29:20.273Z,100204.97
2022-08-26T04:31:55.342Z,100213.81
2022-08-26T04:34:24.921Z,100211.97
2022-08-26T04:36:56.736Z,100200.34
2022-08-26T04:39:24.526Z,100203.25
2022-08-26T04:41:55.382Z,100231.28
2022-08-26T04:44:25.891Z,100216.13
2022-08-26T04:46:53.837Z,100213.94
2022-08-26T04:49:23.190Z,100188.50
2022-08-26T04:51:53.925Z,100213.03
2022-08-26T04:54:22.274Z,100223.00
2022-08-26T04:56:50.934Z,100225.06
2022-08-26T04:59:18.462Z,100089.88
2022-08-26T05:01:51.917Z,100220.06
2022-08-26T05:04:21.179Z,100227.28
2022-08-26T05:06:49.407Z,100223.19
2022-08-26T05:09:18.811Z,100132.00
2022-08-26T05:11:48.458Z,100198.19
2022-08-26T05:14:23.617Z,100186.91
2022-08-26T05:16:51.199Z,100171.44
2022-08-26T05:19:19.616Z,100145.59
2022-08-26T05:21:48.986Z,100169.09
2022-08-26T05:24:18.041Z,100234.41
2022-08-26T05:26:46.137Z,100217.03
2022-08-26T05:29:32.042Z,100235.91
2022-08-26T05:32:00.870Z,100238.56
2022-08-26T05:34:30.166Z,100245.13
2022-08-26T05:36:58.795Z,100251.66
2022-08-26T05:39:26.240Z,100244.09
2022-08-26T05:41:53.515Z,100247.75
2022-08-26T05:44:21.474Z,100236.81
2022-08-26T05:46:49.754Z,100222.50
2022-08-26T05:49:18.837Z,100164.16
2022-08-26T05:51:47.687Z,100247.44
2022-08-26T05:54:22.071Z,100234.34
2022-08-26T05:56:51.945Z,100241.00
2022-08-26T05:59:24.234Z,100237.88
2022-08-26T06:01:53.858Z,100236.81
2022-08-26T06:04:22.241Z,100249.56
2022-08-26T06:06:52.308Z,100232.41
2022-08-26T06:09:19.925Z,100151.69
2022-08-26T06:11:47.246Z,100237.25
2022-08-26T06:14:15.653Z,100250.13
2022-08-26T06:16:45.500Z,100191.19
2022-08-26T06:19:15.731Z,100248.09
2022-08-26T06:21:47.353Z,100244.75
2022-08-26T06:24:39.689Z,100229.41
2022-08-26T06:27:11.321Z,100249.19
2022-08-26T06:29:38.961Z,100195.13
2022-08-26T06:32:06.973Z,100250.16
2022-08-26T06:34:36.705Z,100253.94
2022-08-26T06:37:06.499Z,100232.25
2022-08-26T06:39:34.487Z,100254.28
2022-08-26T06:42:06.084Z,100254.97
2022-08-26T06:44:35.054Z,100251.78
2022-08-26T06:47:02.375Z,100255.03
2022-08-26T06:49:29.940Z,100176.66
2022-08-26T06:52:00.136Z,100265.84
2022-08-26T06:54:30.490Z,100266.81
2022-08-26T06:56:58.641Z,100256.44
2022-08-26T06:59:26.204Z,100253.53
2022-08-26T07:01:55.084Z,100262.03
2022-08-26T07:04:25.057Z,100259.41
2022-08-26T07:06:55.924Z,100230.47
2022-08-26T07:09:26.190Z,100256.25
2022-08-26T07:11:56.337Z,100252.75
2022-08-26T07:14:25.119Z,100249.91
2022-08-26T07:16:54.885Z,100249.72
2022-08-26T07:19:31.001Z,100182.53
2022-08-26T07:22:05.406Z,100244.06
2022-08-26T07:24:35.178Z,100248.78
2022-08-26T07:27:05.871Z,100250.03
2022-08-26T07:29:34.868Z,100192.16
2022-08-26T07:32:03.426Z,100138.78
2022-08-26T07:34:33.157Z,100240.06
2022-08-26T07:37:02.011Z,100248.38
2022-08-26T07:39:31.313Z,100237.69
2022-08-26T07:42:01.697Z,100203.91
2022-08-26T07:44:36.785Z,100243.03
2022-08-26T07:47:10.404Z,100234.81
2022-08-26T07:49:52.877Z,100239.66
2022-08-26T07:52:26.162Z,100221.41
2022-08-26T07:55:00.158Z,100231.34
2022-08-26T07:57:28.682Z,100235.19
2022-08-26T07:59:56.680Z,100241.75
2022-08-26T08:02:25.755Z,100237.47
2022-08-26T08:04:53.739Z,100215.84
2022-08-26T08:07:21.777Z,100172.41
2022-08-26T08:10:11.304Z,100235.34
2022-08-26T08:12:39.470Z,100216.41
2022-08-26T08:15:07.903Z,100233.19
2022-08-26T08:17:35.640Z,100227.38
2022-08-26T08:20:05.020Z,100209.91
2022-08-26T08:22:32.666Z,100231.91
2022-08-26T08:25:00.555Z,100197.59
2022-08-26T08:27:34.291Z,100189.19
2022-08-26T08:30:02.885Z,100204.38
2022-08-26T08:32:32.636Z,100217.31
2022-08-26T08:35:00.321Z,100217.47
2022-08-26T08:37:28.041Z,100199.28
2022-08-26T08:39:55.805Z,100051.03
2022-08-26T08:42:35.453Z,100200.81
2022-08-26T08:45:24.420Z,100085.34
2022-08-26T08:48:01.978Z,100092.72
2022-08-26T08:50:50.865Z,100187.41
2022-08-26T08:53:35.589Z,100207.53
2022-08-26T08:56:25.587Z,100195.66
2022-08-26T08:59:14.756Z,100192.25
2022-08-26T09:02:09.558Z,100182.88
2022-08-26T09:04:43.521Z,100188.22
2022-08-26T09:07:18.641Z,100175.84
2022-08-26T09:09:51.285Z,100179.34
2022-08-26T09:12:29.334Z,100179.56
2022-08-26T09:15:04.798Z,100058.44
2022-08-26T09:18:15.047Z,100105.81
2022-08-26T09:21:03.775Z,100114.84
2022-08-26T09:23:33.311Z,100173.81
2022-08-26T09:26:25.874Z,100167.25
2022-08-26T09:29:08.947Z,100078.28
2022-08-26T09:31:39.431Z,100172.41
2022-08-26T09:34:24.096Z,100168.81
2022-08-26T09:36:54.127Z,100152.97
2022-08-26T09:39:24.974Z,100162.03
2022-08-26T09:42:14.146Z,100168.63
2022-08-26T09:45:03.704Z,100160.16
2022-08-26T09:47:35.022Z,100166.50
2022-08-26T09:50:10.043Z,100144.94
2022-08-26T09:52:40.553Z,100097.69
2022-08-26T09:55:10.246Z,100171.03
2022-08-26T09:58:07.972Z,100128.75
2022-08-26T10:00:55.814Z,100148.88
2022-08-26T10:03:31.457Z,100159.00
2022-08-26T10:06:03.586Z,100157.13
2022-08-26T10:08:39.117Z,100054.09
2022-08-26T10:11:12.276Z,100154.28
2022-08-26T10:13:45.310Z,100074.97
2022-08-26T10:16:51.085Z,100153.38
2022-08-26T10:19:56.074Z,100070.84
2022-08-26T10:22:51.287Z,100150.00
2022-08-26T10:25:35.405Z,100131.13
2022-08-26T10:28:32.443Z,100143.19
2022-08-26T10:31:10.437Z,100152.06
2022-08-26T10:33:43.802Z,100137.34
2022-08-26T10:36:43.099Z,100136.47
2022-08-26T10:39:32.709Z,100128.50
2022-08-26T10:42:09.111Z,100094.88
2022-08-26T10:44:44.623Z,100117.84
2022-08-26T10:47:25.109Z,100115.50
2022-08-26T10:50:00.548Z,100127.97
2022-08-26T10:52:49.286Z,100106.56
2022-08-26T10:55:41.305Z,100111.59
2022-08-26T10:58:33.397Z,100118.28
2022-08-26T11:01:41.200Z,100117.75
2022-08-26T11:04:29.939Z,100111.31
2022-08-26T11:07:41.581Z,100112.16
2022-08-26T11:10:37.838Z,100113.22
2022-08-26T11:13:14.875Z,100111.50
2022-08-26T11:15:54.955Z,100109.97
2022-08-26T11:18:52.374Z,100112.47
2022-08-26T11:21:53.104Z,100110.53
2022-08-26T11:24:39.536Z,100107.59
2022-08-26T11:27:14.564Z,100008.38
2022-08-26T11:30:27.269Z,100109.38
2022-08-26T11:33:04.141Z,100077.50
2022-08-26T11:35:37.345Z,100099.50
2022-08-26T11:38:32.981Z,100092.59
2022-08-26T11:41:12.106Z,100067.88
2022-08-26T11:43:44.313Z,100087.19
2022-08-26T11:46:12.974Z,100087.63
2022-08-26T11:48:45.250Z,100080.22
2022-08-26T11:51:21.814Z,100074.16
2022-08-26T11:54:09.690Z,100052.19
2022-08-26T11:56:44.708Z,100066.13
2022-08-26T11:59:16.058Z,99964.78
2022-08-26T12:01:50.211Z,99996.06
2022-08-26T12:04:33.810Z,100074.59
2022-08-26T12:07:02.800Z,99926.13
2022-08-26T12:09:38.254Z,100037.22
2022-08-26T12:12:21.913Z,100080.66
2022-08-26T12:15:29.539Z,100049.28
2022-08-26T12:18:16.773Z,100083.81
2022-08-26T12:20:51.435Z,100084.09
2022-08-26T12:23:31.795Z,99994.56
2022-08-26T12:26:34.993Z,100075.78
2022-08-26T12:29:19.984Z,100058.56
2022-08-26T12:31:51.422Z,100070.53
2022-08-26T12:34:28.256Z,100056.09
2022-08-26T12:39:39.890Z,100044.28
2022-08-26T12:42:15.805Z,100057.84
2022-08-26T12:44:53.335Z,100053.69
2022-08-26T12:47:42.725Z,100047.34
2022-08-26T12:50:25.062Z,100054.47
2022-08-26T12:53:04.272Z,100050.63
2022-08-26T12:55:44.197Z,100052.94
2022-08-26T12:58:16.839Z,100055.69
2022-08-26T13:00:52.481Z,100016.72
2022-08-26T13:03:45.595Z,100047.16
2022-08-26T13:06:44.812Z,100038.34
2022-08-26T13:09:18.345Z,100039.44
2022-08-26T13:11:46.062Z,100047.47
2022-08-26T13:14:23.798Z,100014.34
2022-08-26T13:16:54.249Z,99932.09
2022-08-26T13:19:25.732Z,100018.63
2022-08-26T13:21:58.713Z,100024.16
2022-08-26T13:24:34.156Z,99951.16
2022-08-26T13:27:04.462Z,99882.06
2022-08-26T13:29:33.563Z,99963.78
2022-08-26T13:32:01.516Z,100029.59
2022-08-26T13:34:30.746Z,99921.72
2022-08-26T13:36:59.359Z,100019.00
2022-08-26T13:39:29.930Z,100023.22
2022-08-26T13:42:00.749Z,100008.75
2022-08-26T13:44:30.144Z,99977.84
2022-08-26T13:47:02.577Z,100002.31
2022-08-26T13:49:33.881Z,100006.88
2022-08-26T13:52:02.886Z,100003.72
2022-08-26T13:54:33.817Z,99978.25
2022-08-26T13:57:03.516Z,100014.34
2022-08-26T13:59:32.532Z,100014.03
2022-08-26T14:02:04.177Z,99998.16
2022-08-26T14:04:31.386Z,99992.94
2022-08-26T14:07:01.289Z,100013.09
2022-08-26T14:09:35.446Z,100015.34
2022-08-26T14:12:11.990Z,100001.56
2022-08-26T14:14:43.803Z,99928.66
2022-08-26T14:17:19.613Z,99935.75
2022-08-26T14:19:51.011Z,100023.53
2022-08-26T14:22:23.038Z,100016.91
2022-08-26T14:24:55.947Z,100019.75
2022-08-26T14:27:27.159Z,99996.44
2022-08-26T14:30:00.213Z,100016.22
2022-08-26T14:32:34.157Z,100011.97
2022-08-26T14:35:05.146Z,100012.56
2022-08-26T14:37:32.940Z,99996.13
2022-08-26T14:40:01.368Z,100017.50
2022-08-26T14:42:40.161Z,99961.94
2022-08-26T14:45:09.765Z,100010.34
2022-08-26T14:47:45.676Z,100003.47
2022-08-26T14:50:15.544Z,100010.91
2022-08-26T14:55:56.320Z,100002.72
2022-08-26T14:58:28.581Z,99974.09
2022-08-26T15:01:04.614Z,99914.22
2022-08-26T15:03:33.431Z,99941.22
2022-08-26T15:06:01.428Z,99999.06
2022-08-26T15:11:24.952Z,100011.09
2022-08-26T15:13:53.592Z,99991.78
2022-08-26T15:16:23.886Z,99999.38
2022-08-26T15:18:53.944Z,100010.03
2022-08-26T15:21:22.643Z,100000.97
2022-08-26T15:23:55.599Z,100002.19
2022-08-26T15:26:25.310Z,99859.31
2022-08-26T15:28:52.742Z,100016.44
2022-08-26T15:31:25.970Z,100017.91
2022-08-26T15:33:53.722Z,99952.69
2022-08-26T15:36:21.063Z,100014.50
2022-08-26T15:38:48.433Z,100000.59
2022-08-26T15:41:15.932Z,100015.25
2022-08-26T15:43:43.371Z,100019.25
2022-08-26T15:46:12.192Z,99913.00
2022-08-26T15:48:39.868Z,99939.88
2022-08-26T15:51:08.096Z,100007.34
2022-08-26T15:53:35.993Z,100017.75
2022-08-26T15:56:03.840Z,100027.81
2022-08-26T15:58:31.152Z,100011.69
2022-08-26T16:00:58.741Z,100016.47
2022-08-26T16:03:26.470Z,99997.78
2022-08-26T16:05:53.856Z,99955.31
2022-08-26T16:08:21.496Z,99935.59
2022-08-26T16:10:50.814Z,99941.38
2022-08-26T16:13:20.431Z,100013.28
2022-08-26T16:15:48.555Z,100034.16
2022-08-26T16:18:16.849Z,100033.16
2022-08-26T16:20:55.378Z,100038.91
2022-08-26T16:23:38.559Z,100032.09
2022-08-26T16:26:11.611Z,100028.50
2022-08-26T16:28:40.167Z,100031.88
2022-08-26T16:31:10.429Z,100022.78
2022-08-26T16:33:38.356Z,99990.63
2022-08-26T16:36:06.055Z,100024.63
2022-08-26T16:38:33.947Z,100033.09
2022-08-26T16:41:01.609Z,100030.00
2022-08-26T16:43:29.204Z,100035.06
2022-08-26T16:45:57.067Z,99924.94
2022-08-26T16:48:24.915Z,100025.88
2022-08-26T16:50:55.723Z,99960.97
2022-08-26T16:53:23.912Z,100034.31
2022-08-26T16:55:52.178Z,99816.16
2022-08-26T16:58:22.072Z,100047.44
2022-08-26T17:00:49.716Z,99937.47
2022-08-26T17:03:17.401Z,99934.63
2022-08-26T17:05:44.919Z,100011.84
2022-08-26T17:08:15.389Z,99976.16
2022-08-26T17:10:55.474Z,99989.56
2022-08-26T17:13:34.594Z,100035.31
2022-08-26T17:16:06.891Z,100041.06
2022-08-26T17:18:34.870Z,100044.53
2022-08-26T17:21:08.492Z,100033.47
2022-08-26T17:23:37.641Z,100046.34
2022-08-26T17:26:05.465Z,100053.91
2022-08-26T17:28:33.665Z,100046.22
2022-08-26T17:31:02.121Z,100037.25
2022-08-26T17:33:29.976Z,100029.88
2022-08-26T17:35:57.881Z,100040.28
2022-08-26T17:38:26.100Z,100020.00
2022-08-26T17:40:53.746Z,100035.94
2022-08-26T17:43:21.418Z,100012.94
2022-08-26T17:45:49.611Z,100056.75
2022-08-26T17:48:17.414Z,100040.25
2022-08-26T17:50:49.314Z,100036.16
2022-08-26T17:53:18.772Z,100039.13
2022-08-26T17:55:50.673Z,100020.81
2022-08-26T17:58:23.374Z,99934.00
2022-08-26T18:00:54.984Z,100029.69
2022-08-26T18:03:23.060Z,99962.31
2022-08-26T18:05:52.082Z,100043.72
2022-08-26T18:08:19.978Z,99981.63
2022-08-26T18:10:47.452Z,100040.63
2022-08-26T18:13:15.480Z,100021.47
2022-08-26T18:15:45.698Z,100035.72
2022-08-26T18:18:14.481Z,100035.44
2022-08-26T18:20:43.717Z,100039.72
2022-08-26T18:23:13.204Z,100030.34
2022-08-26T18:25:42.093Z,99951.91
2022-08-26T18:28:10.108Z,100034.91
2022-08-26T18:30:37.775Z,100040.06
2022-08-26T18:33:05.145Z,99952.94
2022-08-26T18:35:32.589Z,100019.47
2022-08-26T18:38:07.615Z,100034.84
2022-08-26T18:40:41.040Z,100027.88
2022-08-26T18:43:09.761Z,100051.47
2022-08-26T18:45:37.223Z,99915.28
2022-08-26T18:48:05.651Z,100051.19
2022-08-26T18:50:33.204Z,100032.00
2022-08-26T18:53:02.526Z,100051.78
2022-08-26T18:55:30.122Z,100047.66
2022-08-26T18:57:57.703Z,99985.91
2022-08-26T19:00:25.050Z,100063.72
2022-08-26T19:02:52.624Z,100060.00
2022-08-26T19:05:23.786Z,100068.00
2022-08-26T19:07:51.652Z,99917.31
2022-08-26T19:10:19.283Z,100065.97
2022-08-26T19:12:46.917Z,100053.56
2022-08-26T19:15:19.782Z,100049.44
2022-08-26T19:17:48.598Z,100022.13
2022-08-26T19:20:15.974Z,100065.78
2022-08-26T19:22:43.498Z,100048.00
2022-08-26T19:25:10.982Z,100037.03
2022-08-26T19:27:38.374Z,100074.59
2022-08-26T19:30:07.386Z,99987.03
2022-08-26T19:32:35.722Z,100076.41
2022-08-26T19:35:02.996Z,100053.78
2022-08-26T19:37:30.766Z,100087.03
2022-08-26T19:39:58.520Z,100012.56
2022-08-26T19:42:26.099Z,100079.47
2022-08-26T19:45:24.309Z,100092.69
2022-08-26T19:47:53.741Z,100082.47
2022-08-26T19:50:22.685Z,100086.53
2022-08-26T19:52:50.126Z,100091.94
2022-08-26T19:55:19.285Z,100062.97
2022-08-26T19:57:47.061Z,100096.13
2022-08-26T20:00:18.151Z,100092.72
2022-08-26T20:02:46.037Z,100092.25
2022-08-26T20:05:14.671Z,100093.25
2022-08-26T20:07:42.390Z,100071.09
2022-08-26T20:10:15.880Z,100030.97
2022-08-26T20:12:43.305Z,100095.44
2022-08-26T20:15:12.903Z,100087.63
2022-08-26T20:17:41.204Z,100119.72
2022-08-26T20:20:33.262Z,100097.97
2022-08-26T20:23:03.862Z,100099.34
2022-08-26T20:25:32.876Z,100110.88
2022-08-26T20:28:01.232Z,99980.22
2022-08-26T20:30:28.933Z,100097.69
2022-08-26T20:32:57.205Z,100091.25
2022-08-26T20:35:24.504Z,100073.06
2022-08-26T20:37:52.224Z,100033.97
2022-08-26T20:40:21.421Z,100103.34
2022-08-26T20:42:48.949Z,100089.06
2022-08-26T20:45:16.817Z,100089.59
2022-08-26T20:47:44.165Z,100116.09
2022-08-26T20:50:11.588Z,100095.59
2022-08-26T20:52:39.043Z,100105.41
2022-08-26T20:55:06.873Z,100114.78
2022-08-26T20:57:34.544Z,100109.06
2022-08-26T21:00:02.676Z,100106.63
2022-08-26T21:02:31.965Z,100098.47
2022-08-26T21:05:00.048Z,99952.25
2022-08-26T21:07:27.784Z,100016.78
2022-08-26T21:09:55.567Z,100103.84
2022-08-26T21:12:22.893Z,100098.09
2022-08-26T21:14:50.721Z,99995.28
2022-08-26T21:17:18.101Z,100102.38
2022-08-26T21:19:45.584Z,100108.16
2022-08-26T21:22:13.285Z,100011.03
2022-08-26T21:24:40.503Z,100111.19
2022-08-26T21:27:07.970Z,100107.88
2022-08-26T21:29:36.985Z,100106.31
2022-08-26T21:32:05.521Z,100111.84
2022-08-26T21:34:33.141Z,100105.41
2022-08-26T21:37:00.800Z,100083.41
2022-08-26T21:39:28.387Z,100105.31
2022-08-26T21:41:56.237Z,100125.00
2022-08-26T21:44:23.551Z,100022.97
2022-08-26T21:46:51.113Z,100112.28
2022-08-26T21:49:18.757Z,100113.81
2022-08-26T21:51:48.413Z,100071.88
2022-08-26T21:54:15.964Z,100115.75
2022-08-26T21:56:47.038Z,100036.56
2022-08-26T21:59:18.403Z,100100.81
2022-08-26T22:01:46.034Z,100112.34
2022-08-26T22:04:14.073Z,100123.72
2022-08-26T22:06:44.420Z,100116.50
2022-08-26T22:09:13.101Z,100049.66
2022-08-26T22:11:40.687Z,100122.13
2022-08-26T22:14:08.484Z,99994.31
2022-08-26T22:16:36.072Z,100122.50
2022-08-26T22:19:03.799Z,100049.03
2022-08-26T22:21:32.326Z,100129.38
2022-08-26T22:23:59.825Z,100129.97
2022-08-26T22:26:33.770Z,100120.19
2022-08-26T22:29:02.553Z,100049.03
2022-08-26T22:31:37.804Z,100114.06
2022-08-26T22:34:09.637Z,100028.84
2022-08-26T22:36:43.733Z,100119.66
2022-08-26T22:39:14.412Z,100124.69
2022-08-26T22:41:43.231Z,100102.56
2022-08-26T22:44:11.995Z,100047.78
2022-08-26T22:46:40.268Z,100106.84
2022-08-26T22:49:10.100Z,100110.97
2022-08-26T22:51:37.860Z,100091.56
2022-08-26T22:54:19.584Z,100097.53
2022-08-26T22:56:55.454Z,100103.03
2022-08-26T22:59:32.804Z,100106.63
2022-08-26T23:02:07.121Z,100100.13
2022-08-26T23:04:52.279Z,100069.09
2022-08-26T23:07:35.746Z,100087.28
2022-08-26T23:10:19.669Z,99996.41
2022-08-26T23:12:58.603Z,100096.63
2022-08-26T23:15:39.156Z,100110.91
2022-08-26T23:18:31.266Z,100099.31
2022-08-26T23:21:07.180Z,100001.41
2022-08-26T23:23:37.556Z,100112.75
2022-08-26T23:26:17.504Z,100105.16
2022-08-26T23:29:00.627Z,100079.88
2022-08-26T23:31:36.943Z,100042.34
2022-08-26T23:34:36.283Z,100087.22
2022-08-26T23:37:13.234Z,100050.16
2022-08-26T23:39:49.176Z,100115.44
2022-08-26T23:42:28.982Z,100069.22
2022-08-26T23:45:10.859Z,100091.00
2022-08-26T23:47:49.482Z,100109.69
2022-08-26T23:51:00.626Z,100108.09
2022-08-26T23:53:37.536Z,100113.88
2022-08-26T23:56:05.414Z,100093.91
2022-08-26T23:58:32.844Z,100120.09
